sensor_id;sensor_type;location;lat;lon;timestamp;temperature;humidity
83500;DHT22;73433;50.908;13.746;2023-10-19T00:00:37;7.80;67.90
83500;DHT22;73433;50.908;13.746;2023-10-19T00:03:07;7.80;67.80
83500;DHT22;73433;50.908;13.746;2023-10-19T00:05:35;7.80;68.00
83500;DHT22;73433;50.908;13.746;2023-10-19T00:08:04;7.70;68.00
83500;DHT22;73433;50.908;13.746;2023-10-19T00:10:53;7.70;68.10
83500;DHT22;73433;50.908;13.746;2023-10-19T00:13:38;7.80;68.10
83500;DHT22;73433;50.908;13.746;2023-10-19T00:16:09;7.80;68.20
83500;DHT22;73433;50.908;13.746;2023-10-19T00:18:44;7.70;68.20
83500;DHT22;73433;50.908;13.746;2023-10-19T00:21:16;7.80;68.30
83500;DHT22;73433;50.908;13.746;2023-10-19T00:23:54;7.80;68.20
83500;DHT22;73433;50.908;13.746;2023-10-19T00:26:25;7.80;68.10
83500;DHT22;73433;50.908;13.746;2023-10-19T00:28:57;7.80;68.10
83500;DHT22;73433;50.908;13.746;2023-10-19T00:31:25;7.80;68.00
83500;DHT22;73433;50.908;13.746;2023-10-19T00:33:56;7.80;67.90
83500;DHT22;73433;50.908;13.746;2023-10-19T00:36:23;7.80;67.90
83500;DHT22;73433;50.908;13.746;2023-10-19T00:38:52;7.80;68.00
83500;DHT22;73433;50.908;13.746;2023-10-19T00:41:25;7.90;68.00
83500;DHT22;73433;50.908;13.746;2023-10-19T00:43:59;7.90;67.90
83500;DHT22;73433;50.908;13.746;2023-10-19T00:46:39;7.80;67.80
83500;DHT22;73433;50.908;13.746;2023-10-19T00:49:11;7.90;67.80
83500;DHT22;73433;50.908;13.746;2023-10-19T00:51:47;7.90;67.80
83500;DHT22;73433;50.908;13.746;2023-10-19T00:54:30;7.90;67.90
83500;DHT22;73433;50.908;13.746;2023-10-19T00:57:04;7.90;67.80
83500;DHT22;73433;50.908;13.746;2023-10-19T00:59:39;7.90;67.90
83500;DHT22;73433;50.908;13.746;2023-10-19T01:02:10;7.90;67.90
83500;DHT22;73433;50.908;13.746;2023-10-19T01:04:46;7.90;67.90
83500;DHT22;73433;50.908;13.746;2023-10-19T01:07:18;7.90;68.00
83500;DHT22;73433;50.908;13.746;2023-10-19T01:09:50;7.90;68.00
83500;DHT22;73433;50.908;13.746;2023-10-19T01:12:20;7.90;68.10
83500;DHT22;73433;50.908;13.746;2023-10-19T01:15:11;7.90;68.20
83500;DHT22;73433;50.908;13.746;2023-10-19T01:17:43;7.90;68.20
83500;DHT22;73433;50.908;13.746;2023-10-19T01:20:15;8.00;68.10
83500;DHT22;73433;50.908;13.746;2023-10-19T01:23:03;8.00;68.20
83500;DHT22;73433;50.908;13.746;2023-10-19T01:28:19;8.00;68.20
83500;DHT22;73433;50.908;13.746;2023-10-19T01:30:49;8.00;68.20
83500;DHT22;73433;50.908;13.746;2023-10-19T01:33:20;8.00;68.30
83500;DHT22;73433;50.908;13.746;2023-10-19T01:35:48;8.00;68.30
83500;DHT22;73433;50.908;13.746;2023-10-19T01:38:34;8.00;68.30
83500;DHT22;73433;50.908;13.746;2023-10-19T01:41:02;8.00;68.30
83500;DHT22;73433;50.908;13.746;2023-10-19T01:43:34;8.00;68.40
83500;DHT22;73433;50.908;13.746;2023-10-19T01:46:03;8.00;68.50
83500;DHT22;73433;50.908;13.746;2023-10-19T01:48:41;8.00;68.50
83500;DHT22;73433;50.908;13.746;2023-10-19T01:51:10;8.10;68.60
83500;DHT22;73433;50.908;13.746;2023-10-19T01:53:38;8.10;68.50
83500;DHT22;73433;50.908;13.746;2023-10-19T01:56:12;8.10;68.50
83500;DHT22;73433;50.908;13.746;2023-10-19T01:58:46;8.10;68.60
83500;DHT22;73433;50.908;13.746;2023-10-19T02:01:15;8.20;68.60
83500;DHT22;73433;50.908;13.746;2023-10-19T02:03:57;8.20;68.70
83500;DHT22;73433;50.908;13.746;2023-10-19T02:06:29;8.20;68.70
83500;DHT22;73433;50.908;13.746;2023-10-19T02:09:12;8.20;68.60
83500;DHT22;73433;50.908;13.746;2023-10-19T02:11:53;8.20;68.70
83500;DHT22;73433;50.908;13.746;2023-10-19T02:14:26;8.20;68.60
83500;DHT22;73433;50.908;13.746;2023-10-19T02:16:55;8.20;68.80
83500;DHT22;73433;50.908;13.746;2023-10-19T02:19:27;8.20;68.70
83500;DHT22;73433;50.908;13.746;2023-10-19T02:21:58;8.20;68.70
83500;DHT22;73433;50.908;13.746;2023-10-19T02:24:26;8.20;68.80
83500;DHT22;73433;50.908;13.746;2023-10-19T02:26:55;8.20;68.90
83500;DHT22;73433;50.908;13.746;2023-10-19T02:29:23;8.20;68.90
83500;DHT22;73433;50.908;13.746;2023-10-19T02:31:52;8.20;69.10
83500;DHT22;73433;50.908;13.746;2023-10-19T02:34:21;8.20;69.10
83500;DHT22;73433;50.908;13.746;2023-10-19T02:36:50;8.20;69.10
83500;DHT22;73433;50.908;13.746;2023-10-19T02:39:17;8.20;69.20
83500;DHT22;73433;50.908;13.746;2023-10-19T02:41:46;8.20;69.70
83500;DHT22;73433;50.908;13.746;2023-10-19T02:44:16;8.30;69.70
83500;DHT22;73433;50.908;13.746;2023-10-19T02:46:45;8.30;69.60
83500;DHT22;73433;50.908;13.746;2023-10-19T02:49:14;8.30;69.50
83500;DHT22;73433;50.908;13.746;2023-10-19T02:51:46;8.30;69.70
83500;DHT22;73433;50.908;13.746;2023-10-19T02:54:18;8.30;69.70
83500;DHT22;73433;50.908;13.746;2023-10-19T02:56:53;8.30;69.80
83500;DHT22;73433;50.908;13.746;2023-10-19T02:59:23;8.30;69.80
83500;DHT22;73433;50.908;13.746;2023-10-19T03:01:56;8.30;70.70
83500;DHT22;73433;50.908;13.746;2023-10-19T03:04:36;8.30;69.80
83500;DHT22;73433;50.908;13.746;2023-10-19T03:07:04;8.30;70.00
83500;DHT22;73433;50.908;13.746;2023-10-19T03:09:32;8.30;70.20
83500;DHT22;73433;50.908;13.746;2023-10-19T03:12:04;8.30;70.70
83500;DHT22;73433;50.908;13.746;2023-10-19T03:14:32;8.30;71.80
83500;DHT22;73433;50.908;13.746;2023-10-19T03:17:00;8.30;72.90
83500;DHT22;73433;50.908;13.746;2023-10-19T03:19:28;8.20;73.90
83500;DHT22;73433;50.908;13.746;2023-10-19T03:21:55;8.10;75.30
83500;DHT22;73433;50.908;13.746;2023-10-19T03:24:23;8.00;76.20
83500;DHT22;73433;50.908;13.746;2023-10-19T03:26:51;7.80;77.20
83500;DHT22;73433;50.908;13.746;2023-10-19T03:29:18;7.70;77.90
83500;DHT22;73433;50.908;13.746;2023-10-19T03:32:05;7.60;78.60
83500;DHT22;73433;50.908;13.746;2023-10-19T03:34:35;7.50;79.40
83500;DHT22;73433;50.908;13.746;2023-10-19T03:37:05;7.40;79.90
83500;DHT22;73433;50.908;13.746;2023-10-19T03:39:34;7.40;80.70
83500;DHT22;73433;50.908;13.746;2023-10-19T03:42:01;7.40;81.10
83500;DHT22;73433;50.908;13.746;2023-10-19T03:44:28;7.30;81.70
83500;DHT22;73433;50.908;13.746;2023-10-19T03:47:08;7.30;82.00
83500;DHT22;73433;50.908;13.746;2023-10-19T03:49:39;7.30;82.20
83500;DHT22;73433;50.908;13.746;2023-10-19T03:52:07;7.30;82.40
83500;DHT22;73433;50.908;13.746;2023-10-19T03:54:38;7.30;82.50
83500;DHT22;73433;50.908;13.746;2023-10-19T03:57:13;7.20;82.90
83500;DHT22;73433;50.908;13.746;2023-10-19T03:59:47;7.20;83.00
83500;DHT22;73433;50.908;13.746;2023-10-19T04:02:18;7.20;83.50
83500;DHT22;73433;50.908;13.746;2023-10-19T04:04:48;7.10;83.70
83500;DHT22;73433;50.908;13.746;2023-10-19T04:07:16;7.10;84.00
83500;DHT22;73433;50.908;13.746;2023-10-19T04:09:54;7.10;84.30
83500;DHT22;73433;50.908;13.746;2023-10-19T04:12:35;7.00;84.60
83500;DHT22;73433;50.908;13.746;2023-10-19T04:15:05;7.00;85.40
83500;DHT22;73433;50.908;13.746;2023-10-19T04:17:45;7.00;85.90
83500;DHT22;73433;50.908;13.746;2023-10-19T04:20:19;6.90;86.40
83500;DHT22;73433;50.908;13.746;2023-10-19T04:22:56;6.90;86.90
83500;DHT22;73433;50.908;13.746;2023-10-19T04:25:34;6.90;87.00
83500;DHT22;73433;50.908;13.746;2023-10-19T04:28:01;6.90;87.50
83500;DHT22;73433;50.908;13.746;2023-10-19T04:30:29;6.90;87.50
83500;DHT22;73433;50.908;13.746;2023-10-19T04:33:00;6.90;88.00
83500;DHT22;73433;50.908;13.746;2023-10-19T04:35:29;6.90;88.00
83500;DHT22;73433;50.908;13.746;2023-10-19T04:38:03;6.90;88.50
83500;DHT22;73433;50.908;13.746;2023-10-19T04:40:30;6.90;88.60
83500;DHT22;73433;50.908;13.746;2023-10-19T04:42:58;6.90;88.80
83500;DHT22;73433;50.908;13.746;2023-10-19T04:45:27;6.90;88.90
83500;DHT22;73433;50.908;13.746;2023-10-19T04:47:54;6.90;89.10
83500;DHT22;73433;50.908;13.746;2023-10-19T04:50:22;6.90;88.90
83500;DHT22;73433;50.908;13.746;2023-10-19T04:52:49;7.00;88.90
83500;DHT22;73433;50.908;13.746;2023-10-19T04:55:16;7.00;89.00
83500;DHT22;73433;50.908;13.746;2023-10-19T04:57:44;7.00;88.90
83500;DHT22;73433;50.908;13.746;2023-10-19T05:00:12;7.10;88.90
83500;DHT22;73433;50.908;13.746;2023-10-19T05:02:41;7.10;88.80
83500;DHT22;73433;50.908;13.746;2023-10-19T05:05:09;7.10;88.60
83500;DHT22;73433;50.908;13.746;2023-10-19T05:07:37;7.00;88.50
83500;DHT22;73433;50.908;13.746;2023-10-19T05:10:05;7.00;88.30
83500;DHT22;73433;50.908;13.746;2023-10-19T05:12:33;7.00;88.30
83500;DHT22;73433;50.908;13.746;2023-10-19T05:15:01;7.00;88.20
83500;DHT22;73433;50.908;13.746;2023-10-19T05:17:28;6.90;88.20
83500;DHT22;73433;50.908;13.746;2023-10-19T05:19:56;7.00;88.20
83500;DHT22;73433;50.908;13.746;2023-10-19T05:22:27;6.90;88.50
83500;DHT22;73433;50.908;13.746;2023-10-19T05:24:56;6.90;88.60
83500;DHT22;73433;50.908;13.746;2023-10-19T05:27:24;6.90;88.80
83500;DHT22;73433;50.908;13.746;2023-10-19T05:29:52;6.90;88.80
83500;DHT22;73433;50.908;13.746;2023-10-19T05:32:27;6.80;88.60
83500;DHT22;73433;50.908;13.746;2023-10-19T05:35:06;6.90;88.90
83500;DHT22;73433;50.908;13.746;2023-10-19T05:37:39;6.90;89.20
83500;DHT22;73433;50.908;13.746;2023-10-19T05:40:28;6.80;89.20
83500;DHT22;73433;50.908;13.746;2023-10-19T05:43:20;6.80;89.20
83500;DHT22;73433;50.908;13.746;2023-10-19T05:45:47;6.80;89.40
83500;DHT22;73433;50.908;13.746;2023-10-19T05:48:19;6.80;89.40
83500;DHT22;73433;50.908;13.746;2023-10-19T05:50:47;6.80;89.40
83500;DHT22;73433;50.908;13.746;2023-10-19T05:53:14;6.70;89.40
83500;DHT22;73433;50.908;13.746;2023-10-19T05:55:45;6.70;89.50
83500;DHT22;73433;50.908;13.746;2023-10-19T05:58:13;6.80;89.70
83500;DHT22;73433;50.908;13.746;2023-10-19T06:00:40;6.70;89.80
83500;DHT22;73433;50.908;13.746;2023-10-19T06:03:07;6.80;89.90
83500;DHT22;73433;50.908;13.746;2023-10-19T06:05:35;6.80;90.00
83500;DHT22;73433;50.908;13.746;2023-10-19T06:08:02;6.80;90.00
83500;DHT22;73433;50.908;13.746;2023-10-19T06:10:31;6.80;90.20
83500;DHT22;73433;50.908;13.746;2023-10-19T06:12:59;6.80;90.00
83500;DHT22;73433;50.908;13.746;2023-10-19T06:15:26;6.80;89.80
83500;DHT22;73433;50.908;13.746;2023-10-19T06:17:55;6.90;90.50
83500;DHT22;73433;50.908;13.746;2023-10-19T06:20:23;6.90;89.70
83500;DHT22;73433;50.908;13.746;2023-10-19T06:22:57;6.90;89.80
83500;DHT22;73433;50.908;13.746;2023-10-19T06:25:33;6.90;89.80
83500;DHT22;73433;50.908;13.746;2023-10-19T06:28:02;6.90;89.70
83500;DHT22;73433;50.908;13.746;2023-10-19T06:30:29;6.90;89.60
83500;DHT22;73433;50.908;13.746;2023-10-19T06:32:58;6.90;89.60
83500;DHT22;73433;50.908;13.746;2023-10-19T06:35:29;6.90;89.60
83500;DHT22;73433;50.908;13.746;2023-10-19T06:38:00;6.90;89.70
83500;DHT22;73433;50.908;13.746;2023-10-19T06:40:27;6.90;89.70
83500;DHT22;73433;50.908;13.746;2023-10-19T06:42:55;6.90;89.80
83500;DHT22;73433;50.908;13.746;2023-10-19T06:45:26;6.90;89.80
83500;DHT22;73433;50.908;13.746;2023-10-19T06:47:53;6.90;90.00
83500;DHT22;73433;50.908;13.746;2023-10-19T06:50:23;6.90;90.90
83500;DHT22;73433;50.908;13.746;2023-10-19T06:52:51;6.90;90.10
83500;DHT22;73433;50.908;13.746;2023-10-19T06:55:19;7.00;89.90
83500;DHT22;73433;50.908;13.746;2023-10-19T06:57:54;7.00;89.90
83500;DHT22;73433;50.908;13.746;2023-10-19T07:00:23;7.00;89.90
83500;DHT22;73433;50.908;13.746;2023-10-19T07:02:56;7.00;89.80
83500;DHT22;73433;50.908;13.746;2023-10-19T07:05:23;7.10;90.10
83500;DHT22;73433;50.908;13.746;2023-10-19T07:07:52;7.10;90.20
83500;DHT22;73433;50.908;13.746;2023-10-19T07:10:22;7.10;90.20
83500;DHT22;73433;50.908;13.746;2023-10-19T07:12:54;7.10;90.20
83500;DHT22;73433;50.908;13.746;2023-10-19T07:15:24;7.10;90.40
83500;DHT22;73433;50.908;13.746;2023-10-19T07:17:53;7.10;90.50
83500;DHT22;73433;50.908;13.746;2023-10-19T07:20:24;7.10;90.50
83500;DHT22;73433;50.908;13.746;2023-10-19T07:22:59;7.10;90.70
83500;DHT22;73433;50.908;13.746;2023-10-19T07:25:30;7.10;90.90
83500;DHT22;73433;50.908;13.746;2023-10-19T07:27:58;7.10;90.70
83500;DHT22;73433;50.908;13.746;2023-10-19T07:30:27;7.10;90.70
83500;DHT22;73433;50.908;13.746;2023-10-19T07:32:54;7.10;90.80
83500;DHT22;73433;50.908;13.746;2023-10-19T07:35:29;7.10;90.90
83500;DHT22;73433;50.908;13.746;2023-10-19T07:38:02;7.20;90.70
83500;DHT22;73433;50.908;13.746;2023-10-19T07:40:31;7.20;90.60
83500;DHT22;73433;50.908;13.746;2023-10-19T07:42:59;7.20;90.60
83500;DHT22;73433;50.908;13.746;2023-10-19T07:45:26;7.20;90.70
83500;DHT22;73433;50.908;13.746;2023-10-19T07:47:54;7.20;90.80
83500;DHT22;73433;50.908;13.746;2023-10-19T07:50:21;7.20;90.90
83500;DHT22;73433;50.908;13.746;2023-10-19T07:52:51;7.30;91.00
83500;DHT22;73433;50.908;13.746;2023-10-19T07:55:20;7.20;90.90
83500;DHT22;73433;50.908;13.746;2023-10-19T07:57:50;7.20;91.10
83500;DHT22;73433;50.908;13.746;2023-10-19T08:00:18;7.30;91.60
83500;DHT22;73433;50.908;13.746;2023-10-19T08:02:47;7.30;91.30
83500;DHT22;73433;50.908;13.746;2023-10-19T08:05:15;7.30;91.30
83500;DHT22;73433;50.908;13.746;2023-10-19T08:07:46;7.30;91.60
83500;DHT22;73433;50.908;13.746;2023-10-19T08:10:18;7.40;91.50
83500;DHT22;73433;50.908;13.746;2023-10-19T08:12:47;7.40;91.40
83500;DHT22;73433;50.908;13.746;2023-10-19T08:15:16;7.40;91.50
83500;DHT22;73433;50.908;13.746;2023-10-19T08:17:49;7.40;91.60
83500;DHT22;73433;50.908;13.746;2023-10-19T08:20:22;7.40;91.60
83500;DHT22;73433;50.908;13.746;2023-10-19T08:22:59;7.50;91.90
83500;DHT22;73433;50.908;13.746;2023-10-19T08:25:29;7.50;92.00
83500;DHT22;73433;50.908;13.746;2023-10-19T08:28:13;7.60;91.90
83500;DHT22;73433;50.908;13.746;2023-10-19T08:30:41;7.60;92.30
83500;DHT22;73433;50.908;13.746;2023-10-19T08:33:12;7.70;92.60
83500;DHT22;73433;50.908;13.746;2023-10-19T08:35:41;7.70;92.70
83500;DHT22;73433;50.908;13.746;2023-10-19T08:38:08;7.70;93.60
83500;DHT22;73433;50.908;13.746;2023-10-19T08:40:39;7.80;93.30
83500;DHT22;73433;50.908;13.746;2023-10-19T08:43:07;7.80;93.70
83500;DHT22;73433;50.908;13.746;2023-10-19T08:45:42;7.90;93.80
83500;DHT22;73433;50.908;13.746;2023-10-19T08:48:09;7.90;94.00
83500;DHT22;73433;50.908;13.746;2023-10-19T08:50:37;8.00;93.80
83500;DHT22;73433;50.908;13.746;2023-10-19T08:53:08;8.00;93.60
83500;DHT22;73433;50.908;13.746;2023-10-19T08:55:36;8.10;93.80
83500;DHT22;73433;50.908;13.746;2023-10-19T08:58:17;8.20;93.90
83500;DHT22;73433;50.908;13.746;2023-10-19T09:00:50;8.30;93.90
83500;DHT22;73433;50.908;13.746;2023-10-19T09:03:24;8.40;93.80
83500;DHT22;73433;50.908;13.746;2023-10-19T09:05:54;8.40;93.60
83500;DHT22;73433;50.908;13.746;2023-10-19T09:08:21;8.50;93.50
83500;DHT22;73433;50.908;13.746;2023-10-19T09:10:51;8.50;93.20
83500;DHT22;73433;50.908;13.746;2023-10-19T09:13:23;8.60;93.00
83500;DHT22;73433;50.908;13.746;2023-10-19T09:15:52;8.60;93.20
83500;DHT22;73433;50.908;13.746;2023-10-19T09:18:25;8.70;93.40
83500;DHT22;73433;50.908;13.746;2023-10-19T09:20:56;8.70;93.80
83500;DHT22;73433;50.908;13.746;2023-10-19T09:23:30;8.80;93.90
83500;DHT22;73433;50.908;13.746;2023-10-19T09:25:59;8.90;93.90
83500;DHT22;73433;50.908;13.746;2023-10-19T09:28:35;8.90;93.50
83500;DHT22;73433;50.908;13.746;2023-10-19T09:31:05;9.00;93.20
83500;DHT22;73433;50.908;13.746;2023-10-19T09:33:40;9.10;93.10
83500;DHT22;73433;50.908;13.746;2023-10-19T09:36:09;9.10;93.30
83500;DHT22;73433;50.908;13.746;2023-10-19T09:38:48;9.20;93.50
83500;DHT22;73433;50.908;13.746;2023-10-19T09:41:18;9.30;93.30
83500;DHT22;73433;50.908;13.746;2023-10-19T09:43:48;9.40;93.30
83500;DHT22;73433;50.908;13.746;2023-10-19T09:46:36;9.50;93.30
83500;DHT22;73433;50.908;13.746;2023-10-19T09:49:06;9.60;93.20
83500;DHT22;73433;50.908;13.746;2023-10-19T09:51:35;9.70;93.20
83500;DHT22;73433;50.908;13.746;2023-10-19T09:54:23;9.80;92.60
83500;DHT22;73433;50.908;13.746;2023-10-19T09:57:02;9.80;91.90
83500;DHT22;73433;50.908;13.746;2023-10-19T09:59:34;9.90;92.00
83500;DHT22;73433;50.908;13.746;2023-10-19T10:02:12;10.00;91.40
83500;DHT22;73433;50.908;13.746;2023-10-19T10:04:43;10.00;90.50
83500;DHT22;73433;50.908;13.746;2023-10-19T10:07:13;10.10;90.90
83500;DHT22;73433;50.908;13.746;2023-10-19T10:10:03;10.10;90.00
83500;DHT22;73433;50.908;13.746;2023-10-19T10:12:31;10.10;89.20
83500;DHT22;73433;50.908;13.746;2023-10-19T10:15:04;10.20;90.70
83500;DHT22;73433;50.908;13.746;2023-10-19T10:17:39;10.20;89.10
83500;DHT22;73433;50.908;13.746;2023-10-19T10:23:16;10.50;90.50
83500;DHT22;73433;50.908;13.746;2023-10-19T10:25:45;10.80;89.90
83500;DHT22;73433;50.908;13.746;2023-10-19T10:28:17;11.00;90.30
83500;DHT22;73433;50.908;13.746;2023-10-19T10:31:09;11.10;88.20
83500;DHT22;73433;50.908;13.746;2023-10-19T10:33:42;11.10;88.00
83500;DHT22;73433;50.908;13.746;2023-10-19T10:36:13;11.20;88.10
83500;DHT22;73433;50.908;13.746;2023-10-19T10:38:49;11.20;86.60
83500;DHT22;73433;50.908;13.746;2023-10-19T10:41:23;11.30;87.50
83500;DHT22;73433;50.908;13.746;2023-10-19T10:44:01;11.30;87.40
83500;DHT22;73433;50.908;13.746;2023-10-19T10:46:28;11.40;88.80
83500;DHT22;73433;50.908;13.746;2023-10-19T10:48:56;11.40;87.20
83500;DHT22;73433;50.908;13.746;2023-10-19T10:51:25;11.40;88.20
83500;DHT22;73433;50.908;13.746;2023-10-19T10:53:54;11.50;87.30
83500;DHT22;73433;50.908;13.746;2023-10-19T10:56:23;11.40;86.90
83500;DHT22;73433;50.908;13.746;2023-10-19T10:58:51;11.50;86.50
83500;DHT22;73433;50.908;13.746;2023-10-19T11:01:33;11.50;85.60
83500;DHT22;73433;50.908;13.746;2023-10-19T11:04:11;11.50;86.70
83500;DHT22;73433;50.908;13.746;2023-10-19T11:06:52;11.60;87.10
83500;DHT22;73433;50.908;13.746;2023-10-19T11:09:20;11.60;87.70
83500;DHT22;73433;50.908;13.746;2023-10-19T11:11:51;11.70;87.90
83500;DHT22;73433;50.908;13.746;2023-10-19T11:14:19;11.70;88.20
83500;DHT22;73433;50.908;13.746;2023-10-19T11:16:50;11.70;87.30
83500;DHT22;73433;50.908;13.746;2023-10-19T11:19:18;11.70;86.80
83500;DHT22;73433;50.908;13.746;2023-10-19T11:21:53;11.70;87.20
83500;DHT22;73433;50.908;13.746;2023-10-19T11:24:43;11.70;87.30
83500;DHT22;73433;50.908;13.746;2023-10-19T11:27:10;11.70;86.40
83500;DHT22;73433;50.908;13.746;2023-10-19T11:30:02;11.80;87.50
83500;DHT22;73433;50.908;13.746;2023-10-19T11:32:38;11.80;85.90
83500;DHT22;73433;50.908;13.746;2023-10-19T11:35:07;12.00;87.20
83500;DHT22;73433;50.908;13.746;2023-10-19T11:37:51;12.10;87.40
83500;DHT22;73433;50.908;13.746;2023-10-19T11:40:21;12.10;86.40
83500;DHT22;73433;50.908;13.746;2023-10-19T11:42:49;12.20;85.10
83500;DHT22;73433;50.908;13.746;2023-10-19T11:45:18;12.30;86.40
83500;DHT22;73433;50.908;13.746;2023-10-19T11:47:46;12.30;84.30
83500;DHT22;73433;50.908;13.746;2023-10-19T11:50:13;12.30;82.80
83500;DHT22;73433;50.908;13.746;2023-10-19T11:52:42;12.30;85.00
83500;DHT22;73433;50.908;13.746;2023-10-19T11:55:10;12.30;86.20
83500;DHT22;73433;50.908;13.746;2023-10-19T11:57:37;12.30;87.00
83500;DHT22;73433;50.908;13.746;2023-10-19T12:00:05;12.30;84.40
83500;DHT22;73433;50.908;13.746;2023-10-19T12:02:40;12.30;83.50
83500;DHT22;73433;50.908;13.746;2023-10-19T12:05:09;12.20;82.70
83500;DHT22;73433;50.908;13.746;2023-10-19T12:07:40;12.20;83.80
83500;DHT22;73433;50.908;13.746;2023-10-19T12:10:09;12.20;82.50
83500;DHT22;73433;50.908;13.746;2023-10-19T12:12:37;12.20;84.60
83500;DHT22;73433;50.908;13.746;2023-10-19T12:15:20;12.20;85.50
83500;DHT22;73433;50.908;13.746;2023-10-19T12:17:49;12.20;85.90
83500;DHT22;73433;50.908;13.746;2023-10-19T12:20:18;12.20;83.90
83500;DHT22;73433;50.908;13.746;2023-10-19T12:22:49;12.20;86.10
83500;DHT22;73433;50.908;13.746;2023-10-19T12:25:21;12.20;84.20
83500;DHT22;73433;50.908;13.746;2023-10-19T12:28:08;12.20;85.20
83500;DHT22;73433;50.908;13.746;2023-10-19T12:30:43;12.30;85.60
83500;DHT22;73433;50.908;13.746;2023-10-19T12:33:11;12.40;86.40
83500;DHT22;73433;50.908;13.746;2023-10-19T12:35:41;12.50;87.60
83500;DHT22;73433;50.908;13.746;2023-10-19T12:38:12;12.70;86.10
83500;DHT22;73433;50.908;13.746;2023-10-19T12:40:45;12.80;85.70
83500;DHT22;73433;50.908;13.746;2023-10-19T12:43:17;12.90;84.20
83500;DHT22;73433;50.908;13.746;2023-10-19T12:45:52;13.00;85.70
83500;DHT22;73433;50.908;13.746;2023-10-19T12:48:24;13.10;84.00
83500;DHT22;73433;50.908;13.746;2023-10-19T12:51:01;13.20;85.30
83500;DHT22;73433;50.908;13.746;2023-10-19T12:53:28;13.40;84.00
83500;DHT22;73433;50.908;13.746;2023-10-19T12:55:55;13.40;83.70
83500;DHT22;73433;50.908;13.746;2023-10-19T12:58:23;13.40;83.00
83500;DHT22;73433;50.908;13.746;2023-10-19T13:00:50;13.30;82.40
83500;DHT22;73433;50.908;13.746;2023-10-19T13:03:17;13.20;83.50
83500;DHT22;73433;50.908;13.746;2023-10-19T13:05:45;13.20;84.40
83500;DHT22;73433;50.908;13.746;2023-10-19T13:08:14;13.30;84.70
83500;DHT22;73433;50.908;13.746;2023-10-19T13:10:43;13.30;83.90
83500;DHT22;73433;50.908;13.746;2023-10-19T13:13:12;13.40;84.60
83500;DHT22;73433;50.908;13.746;2023-10-19T13:15:45;13.50;84.10
83500;DHT22;73433;50.908;13.746;2023-10-19T13:18:13;13.60;83.30
83500;DHT22;73433;50.908;13.746;2023-10-19T13:20:47;13.60;83.40
83500;DHT22;73433;50.908;13.746;2023-10-19T13:23:15;13.70;82.60
83500;DHT22;73433;50.908;13.746;2023-10-19T13:25:44;13.80;83.50
83500;DHT22;73433;50.908;13.746;2023-10-19T13:28:18;14.00;83.40
83500;DHT22;73433;50.908;13.746;2023-10-19T13:30:50;14.30;82.20
83500;DHT22;73433;50.908;13.746;2023-10-19T13:33:18;14.60;81.90
83500;DHT22;73433;50.908;13.746;2023-10-19T13:35:45;14.90;80.10
83500;DHT22;73433;50.908;13.746;2023-10-19T13:38:13;15.00;79.50
83500;DHT22;73433;50.908;13.746;2023-10-19T13:40:41;15.10;79.20
83500;DHT22;73433;50.908;13.746;2023-10-19T13:43:09;15.00;78.60
83500;DHT22;73433;50.908;13.746;2023-10-19T13:45:41;14.90;77.50
83500;DHT22;73433;50.908;13.746;2023-10-19T13:48:13;14.70;76.10
83500;DHT22;73433;50.908;13.746;2023-10-19T13:50:46;14.60;77.30
83500;DHT22;73433;50.908;13.746;2023-10-19T13:53:17;14.40;78.10
83500;DHT22;73433;50.908;13.746;2023-10-19T13:55:45;14.30;78.00
83500;DHT22;73433;50.908;13.746;2023-10-19T13:58:12;14.20;79.80
83500;DHT22;73433;50.908;13.746;2023-10-19T14:00:43;14.20;79.50
83500;DHT22;73433;50.908;13.746;2023-10-19T14:03:14;14.10;80.00
83500;DHT22;73433;50.908;13.746;2023-10-19T14:05:44;14.00;79.80
83500;DHT22;73433;50.908;13.746;2023-10-19T14:08:17;14.00;79.80
83500;DHT22;73433;50.908;13.746;2023-10-19T14:10:45;13.90;79.60
83500;DHT22;73433;50.908;13.746;2023-10-19T14:13:13;13.80;79.80
83500;DHT22;73433;50.908;13.746;2023-10-19T14:15:41;13.80;80.90
83500;DHT22;73433;50.908;13.746;2023-10-19T14:18:09;13.80;81.40
83500;DHT22;73433;50.908;13.746;2023-10-19T14:20:40;13.80;81.70
83500;DHT22;73433;50.908;13.746;2023-10-19T14:23:07;13.80;81.50
83500;DHT22;73433;50.908;13.746;2023-10-19T14:25:38;13.80;81.80
83500;DHT22;73433;50.908;13.746;2023-10-19T14:28:10;13.80;82.30
83500;DHT22;73433;50.908;13.746;2023-10-19T14:30:37;13.80;81.50
83500;DHT22;73433;50.908;13.746;2023-10-19T14:33:05;13.70;81.80
83500;DHT22;73433;50.908;13.746;2023-10-19T14:35:38;13.60;82.70
83500;DHT22;73433;50.908;13.746;2023-10-19T14:38:09;13.50;83.30
83500;DHT22;73433;50.908;13.746;2023-10-19T14:40:39;13.50;82.50
83500;DHT22;73433;50.908;13.746;2023-10-19T14:43:10;13.40;82.30
83500;DHT22;73433;50.908;13.746;2023-10-19T14:45:40;13.40;82.70
83500;DHT22;73433;50.908;13.746;2023-10-19T14:48:08;13.30;81.90
83500;DHT22;73433;50.908;13.746;2023-10-19T14:50:37;13.30;82.90
83500;DHT22;73433;50.908;13.746;2023-10-19T14:53:05;13.20;81.30
83500;DHT22;73433;50.908;13.746;2023-10-19T14:55:32;13.20;82.50
83500;DHT22;73433;50.908;13.746;2023-10-19T14:57:59;13.20;81.50
83500;DHT22;73433;50.908;13.746;2023-10-19T15:00:27;13.10;83.70
83500;DHT22;73433;50.908;13.746;2023-10-19T15:03:20;13.10;83.40
83500;DHT22;73433;50.908;13.746;2023-10-19T15:05:50;13.10;82.80
83500;DHT22;73433;50.908;13.746;2023-10-19T15:08:21;13.00;83.70
83500;DHT22;73433;50.908;13.746;2023-10-19T15:10:54;13.00;83.80
83500;DHT22;73433;50.908;13.746;2023-10-19T15:13:21;12.90;84.00
83500;DHT22;73433;50.908;13.746;2023-10-19T15:15:49;12.90;84.90
83500;DHT22;73433;50.908;13.746;2023-10-19T15:18:16;12.80;85.20
83500;DHT22;73433;50.908;13.746;2023-10-19T15:20:43;12.80;84.20
83500;DHT22;73433;50.908;13.746;2023-10-19T15:23:10;12.70;84.80
83500;DHT22;73433;50.908;13.746;2023-10-19T15:25:38;12.70;84.50
83500;DHT22;73433;50.908;13.746;2023-10-19T15:28:07;12.60;83.80
83500;DHT22;73433;50.908;13.746;2023-10-19T15:30:35;12.50;84.50
83500;DHT22;73433;50.908;13.746;2023-10-19T15:33:03;12.40;84.10
83500;DHT22;73433;50.908;13.746;2023-10-19T15:35:31;12.30;84.20
83500;DHT22;73433;50.908;13.746;2023-10-19T15:37:58;12.30;85.40
83500;DHT22;73433;50.908;13.746;2023-10-19T15:40:25;12.20;83.80
83500;DHT22;73433;50.908;13.746;2023-10-19T15:42:53;12.10;84.20
83500;DHT22;73433;50.908;13.746;2023-10-19T15:45:21;12.00;82.60
83500;DHT22;73433;50.908;13.746;2023-10-19T15:47:52;11.90;84.50
83500;DHT22;73433;50.908;13.746;2023-10-19T15:50:20;11.90;84.10
83500;DHT22;73433;50.908;13.746;2023-10-19T15:52:47;11.80;85.20
83500;DHT22;73433;50.908;13.746;2023-10-19T15:55:14;11.70;85.00